Weather at Christchurch International Airport

Public forecast

Using degrees Celsius for public forecast. Weather courtesy of forecast.io.

Current aviation weather report (METAR) for Christchurch International Airport

2024/05/29 20:30 (retrieved 23 minutes ago)

NZCH 292030Z AUTO 35001KT 9999 NCD M01/M02 Q1015

Aviation forecast (TAF) for Christchurch International Airport

2024/05/29 21:14 (retrieved 0 seconds ago)

TAF NZCH 292001Z 2921/3100 VRB02KT CAVOK BECMG 2922/3000 04010KT BECMG 3006/3008 30005KT